Time;durP1;ratioP1;P1;durP2;ratioP2;P2;SDS_P1;SDS_P2;PMS_P1;PMS_P2;Temp;Humidity;BMP_temperature;BMP_pressure;BME280_temperature;BME280_humidity;BME280_pressure;Samples;Min_cycle;Max_cycle;Signal;HPM_P1;HPM_P2
2022/06/28 00:01:52;;;;;;;3.62;3.33;;;;;;;27.35;54.26;101488.78;1698665;84;21049;-48
2022/06/28 00:04:20;;;;;;;3.65;3.33;;;;;;;27.32;54.46;101486.34;1698388;84;21030;-49
2022/06/28 00:06:47;;;;;;;6.28;3.45;;;;;;;27.27;54.39;101483.17;1691876;83;21062;-49
2022/06/28 00:09:14;;;;;;;5.37;3.40;;;;;;;27.23;54.10;101476.85;1701118;84;22426;-51
2022/06/28 00:11:42;;;;;;;5.37;3.42;;;;;;;27.18;53.64;101477.22;1699816;84;21017;-49
2022/06/28 00:16:57;;;;;;;4.53;3.33;;;;;;;27.13;53.46;101471.41;1699160;82;21192;-50
2022/06/28 00:19:24;;;;;;;3.80;3.30;;;;;;;27.10;53.27;101470.30;1707051;82;21506;-50
2022/06/28 00:21:51;;;;;;;5.55;3.17;;;;;;;27.09;53.32;101467.28;1708376;83;21101;-50
2022/06/28 00:24:17;;;;;;;3.67;3.30;;;;;;;27.10;53.38;101470.30;1708286;82;21070;-48
2022/06/28 00:26:45;;;;;;;3.45;3.15;;;;;;;27.09;53.02;101469.95;1708359;82;21050;-49
2022/06/28 00:29:12;;;;;;;3.45;3.05;;;;;;;27.10;53.05;101467.63;1705910;82;21066;-52
2022/06/28 00:31:39;;;;;;;4.12;3.72;;;;;;;27.09;53.13;101460.59;1704931;82;21515;-51
2022/06/28 00:34:06;;;;;;;6.78;3.62;;;;;;;27.12;53.02;101463.01;1705428;82;21098;-50
2022/06/28 00:36:33;;;;;;;7.28;3.85;;;;;;;27.12;53.04;101459.00;1705381;82;21010;-51
2022/06/28 00:39:00;;;;;;;4.15;3.50;;;;;;;27.14;53.09;101457.56;1705279;82;21081;-49
2022/06/28 00:41:27;;;;;;;5.60;3.47;;;;;;;27.15;53.11;101453.91;1702545;82;21042;-48
2022/06/28 00:43:54;;;;;;;3.60;3.30;;;;;;;27.15;52.88;101456.58;1708169;82;21089;-50
2022/06/28 00:46:21;;;;;;;4.05;3.40;;;;;;;27.15;52.65;101448.09;1705743;82;21078;-48
2022/06/28 00:48:48;;;;;;;3.83;3.30;;;;;;;27.14;52.50;101442.36;1706423;82;21479;-51
2022/06/28 00:51:14;;;;;;;3.52;3.20;;;;;;;27.15;52.40;101444.08;1703575;83;21038;-49
2022/06/28 00:53:41;;;;;;;3.52;3.22;;;;;;;27.15;52.39;101448.09;1709835;82;21070;-50
2022/06/28 00:56:08;;;;;;;4.53;3.25;;;;;;;27.15;52.68;101444.08;1707341;82;21030;-49
2022/06/28 00:58:35;;;;;;;3.33;2.70;;;;;;;27.15;53.09;101452.09;1705158;82;21090;-48
2022/06/28 01:01:02;;;;;;;7.35;3.15;;;;;;;27.14;53.56;101447.70;1705371;82;21116;-50
2022/06/28 01:03:29;;;;;;;3.37;3.08;;;;;;;27.14;53.91;101447.70;1705106;82;21102;-50
2022/06/28 01:05:57;;;;;;;4.90;2.80;;;;;;;27.12;54.33;101446.98;1705801;82;21022;-50
2022/06/28 01:08:26;;;;;;;3.60;2.77;;;;;;;27.11;54.69;101453.31;1705436;82;21038;-49
2022/06/28 01:10:54;;;;;;;5.05;3.25;;;;;;;27.10;55.07;101454.27;1705949;83;21563;-50
2022/06/28 01:13:22;;;;;;;3.15;2.77;;;;;;;27.08;55.59;101448.20;1733689;81;21137;-52
2022/06/28 01:15:49;;;;;;;4.90;2.87;;;;;;;27.09;56.16;101454.40;1696530;84;21490;-55
2022/06/28 01:18:16;;;;;;;3.30;2.98;;;;;;;27.07;56.53;101454.53;1705151;84;21018;-52
2022/06/28 01:20:45;;;;;;;5.15;3.00;;;;;;;27.06;56.68;101450.14;1632623;86;21069;-50
2022/06/28 01:23:17;;;;;;;6.12;2.50;;;;;;;27.06;56.65;101450.14;1646357;86;21571;-50
2022/06/28 01:25:45;;;;;;;5.08;2.98;;;;;;;27.03;56.45;101447.73;1646402;85;21011;-48
2022/06/28 01:28:13;;;;;;;3.72;3.12;;;;;;;27.01;56.06;101450.16;1630114;87;21055;-51
2022/06/28 01:30:40;;;;;;;5.97;2.95;;;;;;;26.99;55.89;101450.77;1632248;88;21061;-50
2022/06/28 01:33:18;;;;;;;6.00;3.00;;;;;;;26.96;55.49;101446.50;1646530;87;21574;-48
2022/06/28 01:35:45;;;;;;;3.77;2.95;;;;;;;26.94;54.92;101447.11;1646383;86;21083;-48
2022/06/28 01:38:12;;;;;;;3.52;2.95;;;;;;;26.93;54.50;101444.09;1622919;88;21503;-48
2022/06/28 01:40:40;;;;;;;7.17;3.45;;;;;;;26.93;54.02;101443.23;1632884;86;21092;-49
2022/06/28 01:43:07;;;;;;;6.10;3.05;;;;;;;26.92;53.53;101438.38;1646136;87;21011;-51
2022/06/28 01:45:37;;;;;;;3.92;3.25;;;;;;;26.92;53.29;101441.52;1646196;87;21058;-51
2022/06/28 01:48:05;;;;;;;6.40;2.98;;;;;;;26.92;53.17;101445.05;1646575;87;21051;-51
2022/06/28 01:50:41;;;;;;;4.95;2.85;;;;;;;26.92;52.87;101435.70;1602774;88;21038;-52
2022/06/28 01:53:08;;;;;;;6.53;3.40;;;;;;;26.90;52.69;101433.64;1646238;87;21472;-49
2022/06/28 01:55:57;;;;;;;4.05;2.92;;;;;;;26.91;52.67;101427.34;1597926;89;21100;-53
2022/06/28 01:58:25;;;;;;;2.83;2.62;;;;;;;26.90;52.57;101424.29;1595996;89;21505;-48
2022/06/28 02:00:52;;;;;;;6.67;3.10;;;;;;;26.91;52.56;101429.16;1597659;89;21120;-49
2022/06/28 02:03:19;;;;;;;4.55;2.77;;;;;;;26.89;52.64;101426.61;1597980;89;21543;-50
2022/06/28 02:05:57;;;;;;;6.22;3.00;;;;;;;26.89;52.66;101429.28;1595877;89;21090;-49
2022/06/28 02:08:24;;;;;;;3.90;3.20;;;;;;;26.88;52.56;101426.71;1597031;89;21073;-50
2022/06/28 02:11:02;;;;;;;4.65;3.00;;;;;;;26.85;52.76;101422.48;1597887;89;21173;-48
2022/06/28 02:13:31;;;;;;;2.92;2.65;;;;;;;26.85;53.02;101421.62;1517240;93;21574;-48
2022/06/28 02:15:59;;;;;;;3.70;2.60;;;;;;;26.84;53.25;101423.44;1518575;94;21093;-49
2022/06/28 02:18:27;;;;;;;3.40;3.08;;;;;;;26.82;53.44;101425.38;1518489;93;21109;-50
2022/06/28 02:20:54;;;;;;;3.58;2.80;;;;;;;26.82;53.62;101432.06;1518467;93;21175;-49
2022/06/28 02:23:21;;;;;;;3.77;2.60;;;;;;;26.80;53.50;101423.32;1519995;93;21096;-49
2022/06/28 02:25:48;;;;;;;4.97;2.83;;;;;;;26.78;53.64;101424.41;1524965;93;21088;-52
2022/06/28 02:28:15;;;;;;;4.08;2.77;;;;;;;26.78;53.82;101431.94;1573356;88;21077;-49
2022/06/28 02:30:42;;;;;;;3.17;2.87;;;;;;;26.73;53.28;101435.44;1594641;88;21170;-48
2022/06/28 02:33:09;;;;;;;4.22;2.62;;;;;;;26.70;52.92;101434.33;1595304;89;21090;-50
2022/06/28 02:41:07;;;;;;;2.58;2.37;;;;;;;26.69;52.99;101433.95;1609164;88;21126;-48
2022/06/28 02:43:41;;;;;;;3.77;2.30;;;;;;;26.70;53.71;101426.80;1608836;88;21239;-48
2022/06/28 02:46:08;;;;;;;3.22;2.30;;;;;;;26.71;53.74;101427.17;1617034;87;21095;-50
2022/06/28 02:48:35;;;;;;;6.87;2.40;;;;;;;26.70;52.45;101434.33;1615217;88;21091;-49
2022/06/28 02:51:02;;;;;;;4.03;2.30;;;;;;;26.67;51.09;101427.88;1612654;87;21531;-50
2022/06/28 02:53:29;;;;;;;2.33;2.10;;;;;;;26.65;50.57;101428.48;1607031;87;21095;-49
2022/06/28 02:55:56;;;;;;;3.98;2.20;;;;;;;26.64;50.52;101426.80;1615761;87;21111;-50
2022/06/28 02:58:24;;;;;;;2.25;2.05;;;;;;;26.64;50.74;101429.47;1615664;87;21070;-48
2022/06/28 03:00:52;;;;;;;2.67;2.37;;;;;;;26.63;50.97;101429.95;1614744;87;21074;-48
2022/06/28 03:03:19;;;;;;;3.10;2.20;;;;;;;26.65;51.19;101429.81;1613727;87;21074;-50
2022/06/28 03:05:47;;;;;;;2.30;2.10;;;;;;;26.64;51.36;101432.14;1614825;88;21064;-49
2022/06/28 03:08:14;;;;;;;2.20;2.00;;;;;;;26.64;51.48;101430.80;1611046;88;21561;-49
2022/06/28 03:10:43;;;;;;;2.50;2.30;;;;;;;26.63;51.43;101425.59;1657224;84;21095;-48
2022/06/28 03:13:10;;;;;;;2.25;2.05;;;;;;;26.61;51.04;101429.69;1696818;83;21042;-50
2022/06/28 03:15:37;;;;;;;3.05;2.02;;;;;;;26.61;50.88;101429.69;1690046;83;21015;-51
2022/06/28 03:18:04;;;;;;;2.47;2.27;;;;;;;26.60;50.82;101436.84;1690839;83;21071;-49
2022/06/28 03:20:31;;;;;;;3.25;2.22;;;;;;;26.60;50.70;101434.69;1690706;83;21528;-48
2022/06/28 03:22:58;;;;;;;3.60;2.77;;;;;;;26.60;50.41;101438.69;1690432;83;21571;-49
2022/06/28 03:25:26;;;;;;;2.72;2.50;;;;;;;26.59;50.08;101434.30;1691159;83;21083;-49
2022/06/28 03:27:53;;;;;;;2.37;2.17;;;;;;;26.60;49.86;101430.68;1693646;83;21043;-49
2022/06/28 03:30:20;;;;;;;2.50;2.30;;;;;;;26.63;49.65;101439.77;1693929;83;21047;-51
2022/06/28 03:32:47;;;;;;;2.83;2.62;;;;;;;26.66;49.39;101437.35;1691084;83;21073;-48
2022/06/28 03:35:15;;;;;;;2.22;2.02;;;;;;;26.67;49.34;101442.56;1689055;83;21046;-51
2022/06/28 03:37:42;;;;;;;5.50;2.45;;;;;;;26.69;49.14;101441.95;1692207;84;21532;-48
2022/06/28 03:40:11;;;;;;;3.83;1.95;;;;;;;26.69;48.98;101448.63;1693495;83;21059;-48
2022/06/28 03:42:39;;;;;;;3.25;2.20;;;;;;;26.68;48.58;101444.28;1689190;83;21020;-50
2022/06/28 03:45:07;;;;;;;3.42;2.20;;;;;;;26.68;48.34;101448.28;1690290;83;21520;-48
2022/06/28 03:47:35;;;;;;;2.72;2.00;;;;;;;26.67;48.42;101451.91;1669108;85;21517;-48
2022/06/28 03:50:20;;;;;;;2.30;2.10;;;;;;;26.68;48.33;101454.95;1702519;84;21071;-50
2022/06/28 03:52:52;;;;;;;2.92;2.30;;;;;;;26.69;48.26;101454.48;1694312;83;21536;-49
2022/06/28 03:55:37;;;;;;;2.02;1.85;;;;;;;26.71;48.22;101456.55;1680850;83;21516;-49
2022/06/28 03:58:05;;;;;;;2.00;1.90;;;;;;;26.70;48.19;101450.34;1689348;84;21062;-48
2022/06/28 04:00:32;;;;;;;2.65;2.15;;;;;;;26.70;48.12;101446.34;1681181;83;21507;-49
2022/06/28 04:03:00;;;;;;;4.47;2.25;;;;;;;26.69;48.25;101444.63;1693246;83;21070;-51
2022/06/28 04:05:28;;;;;;;5.17;2.20;;;;;;;26.68;48.74;101448.28;1693455;83;21058;-49
2022/06/28 04:07:55;;;;;;;3.85;2.47;;;;;;;26.66;49.34;101451.55;1693347;83;21558;-50
2022/06/28 04:10:24;;;;;;;4.10;2.40;;;;;;;26.63;49.61;101447.30;1696325;84;21701;-48
2022/06/28 04:12:52;;;;;;;2.27;2.08;;;;;;;26.61;49.61;101453.72;1695795;83;21031;-48
2022/06/28 04:15:20;;;;;;;5.40;2.10;;;;;;;26.59;49.55;101447.65;1696592;83;21094;-48
2022/06/28 04:17:48;;;;;;;6.05;2.30;;;;;;;26.57;49.32;101452.26;1694380;82;21075;-50
2022/06/28 04:20:35;;;;;;;2.30;2.10;;;;;;;26.57;49.20;101451.78;1688753;82;21015;-48
2022/06/28 04:23:07;;;;;;;2.92;2.52;;;;;;;26.60;49.40;101457.37;1701407;82;21484;-49
2022/06/28 04:25:34;;;;;;;2.72;2.12;;;;;;;26.62;49.54;101456.77;1701407;82;21570;-51
2022/06/28 04:28:05;;;;;;;3.80;2.45;;;;;;;26.65;49.67;101453.84;1695793;82;21011;-50
2022/06/28 04:30:33;;;;;;;4.08;2.15;;;;;;;26.67;49.72;101455.91;1671630;82;21067;-49
2022/06/28 04:33:01;;;;;;;2.65;2.45;;;;;;;26.68;49.70;101458.96;1700293;83;21019;-51
2022/06/28 04:35:31;;;;;;;2.62;2.42;;;;;;;26.69;49.89;101457.98;1701157;84;21003;-48
2022/06/28 04:37:58;;;;;;;2.40;2.20;;;;;;;26.68;50.01;101449.62;1701161;82;21507;-50
2022/06/28 04:40:28;;;;;;;3.58;2.12;;;;;;;26.70;50.23;101458.36;1696624;82;21495;-51
2022/06/28 04:42:56;;;;;;;5.35;2.33;;;;;;;26.72;50.43;101458.27;1694560;82;21027;-49
2022/06/28 04:45:23;;;;;;;2.60;2.40;;;;;;;26.74;50.30;101454.52;1698447;82;21007;-49
2022/06/28 04:47:52;;;;;;;5.55;2.72;;;;;;;26.80;50.04;101462.04;1694067;82;21039;-49
2022/06/28 04:50:19;;;;;;;2.72;2.47;;;;;;;26.86;49.76;101461.56;1691489;83;21527;-50
2022/06/28 04:52:46;;;;;;;4.03;2.60;;;;;;;26.94;49.64;101461.80;1697982;82;21463;-52
2022/06/28 04:55:13;;;;;;;2.40;2.17;;;;;;;26.99;49.41;101463.64;1687934;82;21587;-50
2022/06/28 04:57:45;;;;;;;2.45;2.17;;;;;;;27.05;49.46;101463.15;1695567;84;21044;-50
2022/06/28 05:00:15;;;;;;;2.42;2.22;;;;;;;27.11;49.13;101459.13;1701010;83;21123;-49
2022/06/28 05:02:43;;;;;;;3.22;2.27;;;;;;;27.16;49.08;101458.30;1691459;84;21003;-49
2022/06/28 05:05:18;;;;;;;4.75;2.20;;;;;;;27.22;48.96;101461.30;1643007;86;21118;-50
2022/06/28 05:07:47;;;;;;;4.67;2.62;;;;;;;27.28;48.50;101458.17;1684298;84;21120;-48
2022/06/28 05:10:16;;;;;;;3.62;2.67;;;;;;;27.34;48.20;101460.37;1687073;84;21066;-48
2022/06/28 05:12:45;;;;;;;2.50;2.30;;;;;;;27.43;47.85;101460.61;1687558;84;21101;-51
2022/06/28 05:15:12;;;;;;;2.87;2.30;;;;;;;27.56;47.65;101463.96;1689879;84;21105;-53
2022/06/28 05:17:42;;;;;;;2.35;2.15;;;;;;;27.71;47.40;101463.58;1687197;84;21042;-52
2022/06/28 05:20:11;;;;;;;3.22;2.45;;;;;;;27.92;47.09;101463.63;1690039;84;21539;-50
2022/06/28 05:22:38;;;;;;;4.35;2.50;;;;;;;28.13;46.57;101464.05;1687396;84;20995;-51
2022/06/28 05:25:22;;;;;;;5.12;3.22;;;;;;;28.39;45.91;101458.33;1683693;84;21047;-48
2022/06/28 05:27:50;;;;;;;3.62;2.58;;;;;;;28.65;45.22;101453.80;1690571;84;21046;-51
2022/06/28 05:30:17;;;;;;;3.30;3.00;;;;;;;28.88;44.71;101457.17;1688577;84;21087;-53
2022/06/28 05:32:44;;;;;;;4.20;2.50;;;;;;;29.08;44.83;101460.80;1692315;84;21038;-50
2022/06/28 05:35:11;;;;;;;5.67;2.90;;;;;;;29.20;44.86;101467.78;1685295;84;21542;-52
2022/06/28 05:37:38;;;;;;;3.65;3.30;;;;;;;29.29;45.05;101473.66;1695795;84;21534;-51
2022/06/28 05:40:07;;;;;;;4.25;2.35;;;;;;;29.38;45.07;101467.48;1685001;84;21063;-50
2022/06/28 05:42:34;;;;;;;3.95;2.72;;;;;;;29.45;44.98;101469.99;1721779;81;21049;-50
2022/06/28 05:45:01;;;;;;;3.47;2.45;;;;;;;29.50;45.23;101476.63;1740969;81;21063;-52
2022/06/28 05:47:28;;;;;;;2.75;2.55;;;;;;;29.55;44.76;101470.86;1742828;82;21022;-51
2022/06/28 05:49:54;;;;;;;2.85;2.47;;;;;;;29.59;44.20;101478.98;1731707;81;21002;-51
2022/06/28 05:52:21;;;;;;;4.95;2.58;;;;;;;29.61;44.09;101475.67;1707983;83;21053;-49
2022/06/28 05:54:48;;;;;;;4.03;2.72;;;;;;;29.63;44.02;101471.02;1746759;80;21507;-52
2022/06/28 05:57:15;;;;;;;3.12;2.83;;;;;;;29.64;43.83;101474.03;1750171;80;21066;-54
2022/06/28 05:59:42;;;;;;;3.80;2.70;;;;;;;29.65;43.55;101469.04;1741270;80;21000;-50
2022/06/28 06:02:09;;;;;;;3.58;2.37;;;;;;;29.70;43.76;101470.80;1745031;80;21525;-53
2022/06/28 06:04:36;;;;;;;3.08;2.77;;;;;;;29.82;43.43;101468.89;1748825;80;21007;-54
2022/06/28 06:07:04;;;;;;;4.70;2.52;;;;;;;29.95;43.05;101460.05;1746351;81;21019;-52
2022/06/28 06:09:31;;;;;;;4.90;2.83;;;;;;;30.14;42.51;101473.48;1741840;81;21511;-50
2022/06/28 06:11:58;;;;;;;4.47;2.87;;;;;;;30.30;42.01;101469.27;1749584;81;21038;-53
2022/06/28 06:14:25;;;;;;;4.37;3.05;;;;;;;30.42;41.47;101469.95;1744174;80;21031;-55
2022/06/28 06:16:52;;;;;;;6.33;3.10;;;;;;;30.50;41.64;101470.92;1745975;80;21543;-50
2022/06/28 06:19:21;;;;;;;3.55;2.92;;;;;;;30.59;41.10;101464.34;1750911;80;21025;-49
2022/06/28 06:21:48;;;;;;;6.78;3.20;;;;;;;30.68;40.89;101464.82;1745010;81;21015;-53
2022/06/28 06:24:14;;;;;;;3.95;2.77;;;;;;;30.79;40.96;101468.69;1730719;80;21062;-51
2022/06/28 06:26:52;;;;;;;4.25;3.50;;;;;;;30.87;40.73;101466.15;1673371;85;21060;-49
2022/06/28 06:29:19;;;;;;;5.58;3.70;;;;;;;30.94;39.67;101472.12;1674719;85;21584;-53
2022/06/28 06:31:46;;;;;;;9.60;3.50;;;;;;;31.07;39.36;101473.14;1673101;85;21028;-54
2022/06/28 06:34:30;;;;;;;5.08;4.08;;;;;;;31.21;38.75;101469.95;1672604;85;21090;-52
2022/06/28 06:36:59;;;;;;;6.15;4.30;;;;;;;31.37;37.76;101471.50;1627669;88;21610;-51
2022/06/28 06:39:25;;;;;;;6.65;4.33;;;;;;;31.49;36.78;101471.66;1627725;86;21546;-52
2022/06/28 06:41:52;;;;;;;5.62;3.83;;;;;;;31.53;36.35;101470.89;1629783;88;21046;-51
2022/06/28 06:44:21;;;;;;;5.47;4.25;;;;;;;31.51;36.02;101471.02;1627524;88;21118;-52
2022/06/28 06:46:50;;;;;;;4.37;3.98;;;;;;;31.45;35.79;101471.63;1624954;88;21055;-51
2022/06/28 06:49:17;;;;;;;6.92;4.00;;;;;;;31.38;35.89;101469.66;1585362;90;21068;-53
2022/06/28 06:51:45;;;;;;;9.80;4.30;;;;;;;31.28;35.82;101469.72;1585752;88;21064;-51
2022/06/28 06:54:12;;;;;;;5.80;4.25;;;;;;;31.19;36.33;101459.84;1590538;88;21004;-53
2022/06/28 06:56:41;;;;;;;5.83;4.20;;;;;;;31.14;36.41;101456.78;1589790;90;21115;-50
2022/06/28 06:59:13;;;;;;;8.65;4.67;;;;;;;31.11;36.65;101454.37;1588921;88;21065;-51
2022/06/28 07:01:38;;;;;;;5.90;3.83;;;;;;;31.12;36.60;101456.05;1571693;90;21085;-51
2022/06/28 07:04:05;;;;;;;8.55;4.03;;;;;;;31.14;36.63;101463.50;1566800;90;21120;-50
2022/06/28 07:06:33;;;;;;;10.08;4.35;;;;;;;31.16;36.61;101458.30;1582647;89;21606;-52
2022/06/28 07:09:01;;;;;;;9.50;4.92;;;;;;;31.18;36.45;101466.23;1603566;88;21061;-50
2022/06/28 07:11:28;;;;;;;7.00;4.80;;;;;;;31.17;36.33;101461.84;1599541;88;21515;-53
2022/06/28 07:13:55;;;;;;;6.37;4.00;;;;;;;31.16;36.57;101465.54;1581144;90;21578;-50
2022/06/28 07:16:23;;;;;;;6.55;4.20;;;;;;;31.16;36.50;101469.05;1587638;89;21070;-52
2022/06/28 07:18:50;;;;;;;7.65;4.10;;;;;;;31.17;36.56;101460.00;1584951;89;21110;-54
2022/06/28 07:21:17;;;;;;;8.23;4.53;;;;;;;31.21;36.54;101461.40;1608651;87;21206;-51
2022/06/28 07:23:44;;;;;;;8.15;4.17;;;;;;;31.20;36.34;101465.59;1605416;88;21070;-53
2022/06/28 07:26:11;;;;;;;5.80;4.12;;;;;;;31.22;36.61;101464.95;1609692;87;21449;-52
2022/06/28 07:28:37;;;;;;;5.50;4.60;;;;;;;31.28;36.71;101459.79;1612110;87;21078;-53
2022/06/28 07:31:04;;;;;;;8.10;4.33;;;;;;;31.44;36.24;101464.56;1608236;87;21059;-53
2022/06/28 07:33:32;;;;;;;5.83;4.00;;;;;;;31.60;36.39;101462.55;1624320;86;21746;-50
2022/06/28 07:35:59;;;;;;;7.33;5.08;;;;;;;31.78;37.23;101470.16;1625259;86;21106;-52
2022/06/28 07:38:29;;;;;;;5.22;4.22;;;;;;;31.90;36.67;101464.37;1619417;86;21051;-54
2022/06/28 07:41:02;;;;;;;5.05;3.60;;;;;;;31.97;35.97;101468.19;1622972;86;21586;-55
2022/06/28 07:43:39;;;;;;;4.47;4.08;;;;;;;32.01;36.16;101470.91;1675883;85;23500;-53
2022/06/28 07:46:08;;;;;;;5.92;3.70;;;;;;;32.01;36.50;101468.22;1669545;85;21022;-50
2022/06/28 07:48:34;;;;;;;7.78;4.15;;;;;;;32.02;36.58;101463.20;1673822;85;21041;-52
2022/06/28 07:53:49;;;;;;;4.58;3.85;;;;;;;32.07;36.44;101467.61;1670045;85;21688;-53
2022/06/28 07:56:20;;;;;;;7.83;4.20;;;;;;;32.08;36.78;101473.84;1627443;88;21177;-52
2022/06/28 07:58:48;;;;;;;4.37;3.90;;;;;;;32.06;36.47;101478.05;1587674;90;21553;-54
2022/06/28 08:01:17;;;;;;;4.72;4.30;;;;;;;32.08;36.59;101477.88;1583626;90;21590;-50
2022/06/28 08:03:45;;;;;;;6.90;4.10;;;;;;;32.08;36.32;101478.73;1588811;89;21088;-52
2022/06/28 08:06:12;;;;;;;5.20;4.50;;;;;;;32.09;36.05;101469.64;1575826;89;21042;-50
2022/06/28 08:08:56;;;;;;;7.25;4.28;;;;;;;32.14;36.21;101469.18;1590924;88;21075;-50
2022/06/28 08:11:23;;;;;;;5.47;4.87;;;;;;;32.20;35.87;101467.70;1580845;91;21119;-53
2022/06/28 08:13:52;;;;;;;5.15;4.20;;;;;;;32.22;35.29;101469.25;1579186;89;21086;-53
2022/06/28 08:16:19;;;;;;;9.78;4.47;;;;;;;32.23;35.34;101470.95;1564512;90;21061;-52
2022/06/28 08:18:46;;;;;;;6.10;4.55;;;;;;;32.27;35.48;101471.48;1595719;89;21599;-50
2022/06/28 08:21:13;;;;;;;4.90;4.40;;;;;;;32.31;35.28;101472.37;1603096;89;21032;-52
2022/06/28 08:23:42;;;;;;;5.67;4.15;;;;;;;32.36;35.15;101471.88;1643536;86;21086;-50
2022/06/28 08:26:09;;;;;;;6.42;4.95;;;;;;;32.38;34.45;101477.45;1656063;87;21110;-51
2022/06/28 08:28:36;;;;;;;5.00;4.60;;;;;;;32.37;34.25;101478.97;1612575;88;21095;-51
2022/06/28 08:31:03;;;;;;;6.55;4.17;;;;;;;32.35;34.36;101482.32;1645719;87;21066;-49
2022/06/28 08:33:30;;;;;;;6.10;4.50;;;;;;;32.33;34.39;101484.33;1611868;88;21060;-52
2022/06/28 08:35:57;;;;;;;5.70;4.20;;;;;;;32.27;34.35;101479.56;1609249;88;21024;-53
2022/06/28 08:38:24;;;;;;;8.50;4.20;;;;;;;32.21;34.71;101474.80;1607923;88;21046;-56
2022/06/28 08:40:51;;;;;;;6.35;3.95;;;;;;;32.17;35.36;101476.11;1612161;88;21096;-55
2022/06/28 08:43:18;;;;;;;6.30;4.00;;;;;;;32.13;35.69;101473.39;1610929;88;21054;-54
2022/06/28 08:45:44;;;;;;;4.60;4.10;;;;;;;32.09;36.12;101475.03;1612097;88;21086;-52
2022/06/28 08:48:21;;;;;;;4.83;3.67;;;;;;;32.07;36.78;101468.09;1646899;86;21615;-51
2022/06/28 08:50:52;;;;;;;4.67;4.28;;;;;;;32.07;37.12;101470.30;1502739;94;21070;-51
2022/06/28 08:53:21;;;;;;;4.30;3.67;;;;;;;32.06;37.06;101473.16;1524077;92;21108;-51
2022/06/28 08:55:49;;;;;;;5.12;4.10;;;;;;;32.03;37.35;101467.57;1593214;90;21077;-52
2022/06/28 08:58:15;;;;;;;5.20;4.25;;;;;;;32.04;37.02;101462.55;1583676;90;21075;-49
2022/06/28 09:00:42;;;;;;;4.95;4.22;;;;;;;32.08;36.33;101465.27;1591508;88;21098;-54
2022/06/28 09:03:09;;;;;;;5.33;3.80;;;;;;;32.13;35.88;101463.96;1590422;90;21057;-52
2022/06/28 09:05:37;;;;;;;5.95;3.55;;;;;;;32.16;35.85;101462.29;1591215;90;21555;-50
2022/06/28 09:08:06;;;;;;;3.92;3.37;;;;;;;32.21;36.02;101454.11;1592087;90;21093;-50
2022/06/28 09:10:33;;;;;;;4.35;3.42;;;;;;;32.29;36.25;101455.52;1585932;90;21772;-51
2022/06/28 09:13:15;;;;;;;4.72;3.55;;;;;;;32.39;36.09;101456.77;1584261;88;21072;-52
2022/06/28 09:15:59;;;;;;;;;;;;;;;32.47;35.72;101454.16;1600375;88;21518;-51
2022/06/28 09:18:39;;;;;;;3.92;3.00;;;;;;;32.55;35.42;101458.25;1605772;89;20150;-51
2022/06/28 09:21:12;;;;;;;5.33;3.85;;;;;;;32.60;35.47;101460.80;1557064;91;21180;-49
2022/06/28 09:23:44;;;;;;;5.47;3.50;;;;;;;32.67;35.77;101463.72;1559153;91;21090;-51
2022/06/28 09:26:16;;;;;;;9.15;3.83;;;;;;;32.77;37.29;101465.80;1558519;92;21062;-49
2022/06/28 09:28:47;;;;;;;4.92;3.62;;;;;;;32.86;37.11;101458.11;1563561;90;21111;-50
2022/06/28 09:31:21;;;;;;;5.08;3.65;;;;;;;32.94;36.70;101455.95;1519744;93;21114;-50
2022/06/28 09:34:04;;;;;;;4.28;3.77;;;;;;;33.00;36.18;101456.69;1500233;94;22097;-51
2022/06/28 09:39:16;;;;;;;4.15;3.50;;;;;;;33.07;35.95;101457.25;1456753;97;21107;-52
2022/06/28 09:41:47;;;;;;;3.83;3.52;;;;;;;33.13;36.53;101455.25;1407816;101;21116;-52
2022/06/28 09:44:15;;;;;;;6.13;4.00;;;;;;;33.16;37.24;101457.61;1404882;101;21983;-53
2022/06/28 09:46:41;;;;;;;6.47;4.33;;;;;;;33.14;37.36;101461.50;1412377;101;21975;-53
2022/06/28 09:49:09;;;;;;;6.30;4.20;;;;;;;33.07;37.70;101455.91;1411704;101;21165;-51
2022/06/28 09:51:37;;;;;;;4.08;3.67;;;;;;;33.00;38.56;101462.08;1404950;101;21189;-54
2022/06/28 09:54:07;;;;;;;5.80;3.95;;;;;;;32.86;39.06;101454.92;1385773;101;21637;-53
2022/06/28 09:56:46;;;;;;;6.23;4.00;;;;;;;32.73;39.17;101461.23;1379038;103;21178;-52
2022/06/28 09:59:12;;;;;;;4.50;4.10;;;;;;;32.61;39.58;101453.57;1395279;101;21214;-50
2022/06/28 10:01:39;;;;;;;10.78;4.28;;;;;;;32.50;40.05;101455.20;1405265;101;21192;-57
2022/06/28 10:04:06;;;;;;;7.08;3.95;;;;;;;32.41;40.24;101458.80;1373380;104;21165;-50
2022/06/28 10:06:34;;;;;;;5.97;3.90;;;;;;;32.27;40.29;101456.67;1403089;101;21124;-51
2022/06/28 10:09:01;;;;;;;4.75;4.33;;;;;;;32.15;40.53;101457.92;1392039;102;21638;-53
2022/06/28 10:15:00;;;;;;;8.00;4.30;;;;;;;31.99;40.47;101450.03;1397981;102;21155;-52
2022/06/28 10:16:49;;;;;;;4.80;4.10;;;;;;;31.79;40.37;101453.00;1373257;103;21090;-53
2022/06/28 10:19:18;;;;;;;5.22;4.00;;;;;;;31.64;40.77;101460.75;1399897;101;21116;-50
2022/06/28 10:21:59;;;;;;;5.83;4.25;;;;;;;31.53;41.25;101452.88;1401270;101;21110;-53
2022/06/28 10:24:49;;;;;;;5.00;4.05;;;;;;;31.46;41.64;101453.16;1400336;101;21180;-53
2022/06/28 10:27:16;;;;;;;5.40;3.75;;;;;;;31.40;42.37;101456.45;1411061;96;21178;-54
2022/06/28 10:30:08;;;;;;;4.20;3.85;;;;;;;31.36;42.80;101444.27;1482183;95;21084;-52
2022/06/28 10:32:48;;;;;;;8.60;3.95;;;;;;;31.35;43.09;101449.28;1478283;95;21623;-52
2022/06/28 10:35:47;;;;;;;4.30;3.70;;;;;;;31.37;43.21;101443.25;1483062;96;21573;-54
2022/06/28 10:38:15;;;;;;;4.83;4.12;;;;;;;31.42;43.18;101442.84;1513569;90;21133;-53
2022/06/28 10:40:50;;;;;;;5.90;3.92;;;;;;;31.47;42.98;101437.34;1562258;90;21069;-51
2022/06/28 10:43:34;;;;;;;5.20;4.28;;;;;;;31.51;42.60;101432.02;1669876;84;21070;-55
2022/06/28 10:46:05;;;;;;;6.03;4.20;;;;;;;31.57;42.41;101432.78;1639800;86;21112;-50
2022/06/28 10:48:53;;;;;;;5.53;4.00;;;;;;;31.60;42.50;101435.15;1673683;84;21086;-53
2022/06/28 10:51:20;;;;;;;4.83;4.33;;;;;;;31.65;42.22;101438.23;1679105;84;21050;-49
2022/06/28 10:54:06;;;;;;;5.67;3.50;;;;;;;31.72;42.12;101430.37;1663302;84;21061;-50
2022/06/28 10:56:44;;;;;;;6.70;4.10;;;;;;;31.78;41.68;101426.58;1746312;81;21002;-50
2022/06/28 10:59:16;;;;;;;4.72;2.90;;;;;;;31.87;41.14;101421.62;1743926;81;21464;-50
2022/06/28 11:01:51;;;;;;;5.45;3.10;;;;;;;31.93;40.64;101426.42;1718932;83;21522;-51
2022/06/28 11:04:24;;;;;;;3.02;2.55;;;;;;;31.98;40.68;101422.75;1754908;81;21015;-51
2022/06/28 11:07:07;;;;;;;6.55;3.10;;;;;;;32.02;40.29;101416.58;1741497;81;20999;-55
2022/06/28 11:09:59;;;;;;;4.62;3.20;;;;;;;32.05;40.06;101419.80;1709357;83;21506;-53
2022/06/28 11:12:37;;;;;;;5.03;2.85;;;;;;;32.10;39.45;101422.03;1755358;81;21077;-52
2022/06/28 11:15:08;;;;;;;3.62;2.70;;;;;;;32.13;39.41;101418.19;1738865;81;21495;-51
2022/06/28 11:17:41;;;;;;;4.00;2.80;;;;;;;32.15;38.99;101421.56;1745650;81;21046;-49
2022/06/28 11:20:13;;;;;;;4.53;2.35;;;;;;;32.18;38.78;101422.59;1739662;81;21469;-51
2022/06/28 11:22:43;;;;;;;3.10;2.52;;;;;;;32.20;38.78;101407.97;1743842;81;21023;-52
2022/06/28 11:25:13;;;;;;;4.45;2.90;;;;;;;32.24;38.77;101408.00;1699114;84;21030;-52
2022/06/28 11:27:58;;;;;;;4.20;2.45;;;;;;;32.27;38.51;101408.19;1697752;82;21000;-51
2022/06/28 11:30:28;;;;;;;4.80;2.58;;;;;;;32.29;38.28;101415.61;1733995;81;21466;-52
2022/06/28 11:32:56;;;;;;;5.45;2.52;;;;;;;32.30;38.20;101414.59;1714821;82;21546;-50
2022/06/28 11:35:28;;;;;;;4.17;2.25;;;;;;;32.31;38.20;101410.91;1719009;82;21060;-54
2022/06/28 11:37:59;;;;;;;3.62;2.30;;;;;;;32.31;38.18;101409.56;1705893;82;21074;-49
2022/06/28 11:40:28;;;;;;;4.42;2.47;;;;;;;32.31;38.28;101408.22;1705729;82;21532;-57
2022/06/28 11:43:07;;;;;;;4.53;2.42;;;;;;;32.33;37.95;101414.30;1718568;82;21549;-49
2022/06/28 11:45:37;;;;;;;7.10;2.85;;;;;;;32.33;37.94;101419.68;1658545;86;21055;-53
2022/06/28 11:48:13;;;;;;;7.17;2.00;;;;;;;32.36;38.09;101420.70;1650993;86;21041;-51
2022/06/28 11:50:44;;;;;;;5.35;2.15;;;;;;;32.39;38.12;101415.86;1605206;89;21035;-50
2022/06/28 11:53:11;;;;;;;4.72;2.58;;;;;;;32.44;38.33;101419.44;1627817;87;21160;-50